Time;durP1;ratioP1;P1;durP2;ratioP2;P2;SDS_P1;SDS_P2;PMS_P1;PMS_P2;Temp;Humidity;BMP_temperature;BMP_pressure;BME280_temperature;BME280_humidity;BME280_pressure;Samples;Min_cycle;Max_cycle;Signal;HPM_P1;HPM_P2
2023/01/15 00:01:26;;;;;;;6.95;0.93;;;6.30;99.90;;;;;;7297079;32;20510;-60
2023/01/15 00:05:28;;;;;;;7.57;0.70;;;6.30;99.90;;;;;;7301616;32;20142;-61
2023/01/15 00:09:30;;;;;;;6.68;0.80;;;6.30;99.90;;;;;;7307530;32;20159;-60
2023/01/15 00:13:31;;;;;;;5.28;0.75;;;6.30;99.90;;;;;;7302159;32;20172;-61
2023/01/15 00:17:33;;;;;;;5.53;0.95;;;6.30;99.90;;;;;;7299845;32;20613;-61
2023/01/15 00:21:35;;;;;;;6.95;0.98;;;6.30;99.90;;;;;;7301007;32;20544;-60
2023/01/15 00:29:57;;;;;;;8.13;1.67;;;6.30;99.90;;;;;;7300265;32;20134;-64
2023/01/15 00:33:59;;;;;;;6.47;1.20;;;6.30;99.90;;;;;;7302769;32;20111;-60
2023/01/15 00:38:00;;;;;;;8.30;1.08;;;6.40;99.90;;;;;;7297912;32;20104;-60
2023/01/15 00:42:02;;;;;;;6.53;0.95;;;6.40;99.90;;;;;;7301093;32;20154;-60
2023/01/15 00:46:04;;;;;;;3.30;0.88;;;6.40;99.90;;;;;;7300224;32;20235;-60
2023/01/15 00:50:11;;;;;;;6.50;1.02;;;6.30;99.90;;;;;;7300728;32;20107;-60
2023/01/15 00:54:13;;;;;;;6.28;1.10;;;6.40;99.90;;;;;;7300702;32;20233;-60
2023/01/15 00:58:15;;;;;;;4.82;0.77;;;6.40;99.90;;;;;;7300741;32;20199;-61
2023/01/15 01:02:17;;;;;;;4.62;0.60;;;6.30;99.90;;;;;;7300303;32;20176;-61
2023/01/15 01:06:20;;;;;;;3.87;0.50;;;6.30;99.90;;;;;;7301942;32;20129;-61
2023/01/15 01:10:21;;;;;;;2.05;0.40;;;6.30;99.90;;;;;;7296336;32;20104;-61
2023/01/15 01:14:23;;;;;;;1.35;0.20;;;6.30;99.90;;;;;;7299623;32;20117;-61
2023/01/15 01:18:25;;;;;;;4.12;0.50;;;6.20;99.90;;;;;;7297538;32;20127;-60
2023/01/15 01:22:27;;;;;;;1.17;0.30;;;6.20;99.90;;;;;;7299080;32;20130;-60
2023/01/15 01:26:29;;;;;;;2.30;0.50;;;6.20;99.90;;;;;;7299632;32;20191;-60
2023/01/15 01:30:30;;;;;;;2.97;0.60;;;6.20;99.90;;;;;;7298570;32;20328;-60
2023/01/15 01:34:33;;;;;;;2.37;0.45;;;6.20;99.90;;;;;;7299858;32;20140;-60
2023/01/15 01:38:35;;;;;;;1.98;0.30;;;6.20;99.90;;;;;;7300376;32;20218;-60
2023/01/15 01:42:36;;;;;;;4.03;0.43;;;6.20;99.90;;;;;;7300336;32;20126;-60
2023/01/15 01:46:38;;;;;;;4.68;0.50;;;6.10;99.90;;;;;;7298435;32;20294;-60
2023/01/15 01:50:41;;;;;;;4.20;0.50;;;6.20;99.90;;;;;;7299345;32;20131;-61
2023/01/15 01:54:45;;;;;;;1.85;0.40;;;6.10;99.90;;;;;;7299313;32;20107;-59
2023/01/15 01:58:52;;;;;;;4.03;0.32;;;6.10;99.90;;;;;;7299083;32;20219;-59
2023/01/15 02:02:53;;;;;;;2.22;0.32;;;6.10;99.90;;;;;;7298857;32;20107;-60
2023/01/15 02:06:57;;;;;;;5.68;0.35;;;6.20;99.90;;;;;;7299459;32;20256;-60
2023/01/15 02:11:00;;;;;;;2.78;0.40;;;6.10;99.90;;;;;;7298057;32;20595;-60
2023/01/15 02:15:17;;;;;;;2.72;0.50;;;6.10;99.90;;;;;;7298669;32;20135;-61
2023/01/15 02:19:28;;;;;;;3.60;0.40;;;6.10;99.90;;;;;;7298305;32;20135;-60
2023/01/15 02:23:52;;;;;;;1.55;0.30;;;6.10;99.90;;;;;;7299528;32;20158;-60
2023/01/15 02:28:06;;;;;;;1.80;0.20;;;6.10;99.90;;;;;;7298104;32;20387;-61
2023/01/15 02:32:27;;;;;;;2.83;0.50;;;6.10;99.90;;;;;;7297896;32;20108;-61
2023/01/15 02:36:34;;;;;;;2.75;0.40;;;6.10;99.90;;;;;;7297480;32;20127;-60
2023/01/15 02:40:38;;;;;;;2.12;0.30;;;6.10;99.90;;;;;;7296697;32;20239;-60
2023/01/15 02:44:44;;;;;;;4.18;0.77;;;6.10;99.90;;;;;;7296526;32;20154;-60
2023/01/15 02:48:51;;;;;;;2.37;0.50;;;6.10;99.90;;;;;;7296925;32;20150;-60
2023/01/15 02:52:59;;;;;;;4.45;0.43;;;6.10;99.90;;;;;;7299377;32;20534;-61
2023/01/15 02:57:02;;;;;;;2.50;0.60;;;6.20;99.90;;;;;;7298992;32;20262;-63
2023/01/15 03:01:12;;;;;;;1.75;0.40;;;6.10;99.90;;;;;;7296053;32;20161;-60
2023/01/15 03:05:28;;;;;;;4.45;0.55;;;6.20;99.90;;;;;;7301449;32;20179;-60
2023/01/15 03:09:30;;;;;;;2.28;0.35;;;6.20;99.90;;;;;;7298328;32;20112;-61
2023/01/15 03:13:39;;;;;;;3.25;0.57;;;6.10;99.90;;;;;;7299064;32;20104;-61
2023/01/15 03:17:52;;;;;;;4.78;0.40;;;6.10;99.90;;;;;;7297920;32;20174;-61
2023/01/15 03:22:06;;;;;;;2.28;0.40;;;6.20;99.90;;;;;;7300774;32;20138;-60
2023/01/15 03:26:08;;;;;;;2.58;0.32;;;6.20;99.90;;;;;;7292545;32;20209;-60
2023/01/15 03:30:12;;;;;;;3.85;0.40;;;6.10;99.90;;;;;;7297344;32;20417;-60
2023/01/15 03:34:13;;;;;;;3.92;0.65;;;6.20;99.90;;;;;;7291307;32;20553;-60
2023/01/15 03:38:21;;;;;;;5.78;0.70;;;6.20;99.90;;;;;;7303629;32;20721;-61
2023/01/15 03:42:32;;;;;;;3.47;0.70;;;6.20;99.90;;;;;;7305020;32;20364;-60
2023/01/15 03:47:04;;;;;;;4.03;0.62;;;6.20;99.90;;;;;;7304748;32;20183;-60
2023/01/15 03:51:32;;;;;;;3.08;0.40;;;6.20;99.90;;;;;;7307496;32;21558;-61
2023/01/15 03:55:49;;;;;;;4.18;0.62;;;6.20;99.90;;;;;;7306034;32;20125;-60
2023/01/15 03:59:54;;;;;;;;;;;6.20;99.90;;;;;;7305138;32;20315;-59
2023/01/15 04:03:58;;;;;;;2.40;0.35;;;6.20;99.90;;;;;;7304425;32;20094;-60
2023/01/15 04:08:02;;;;;;;6.93;0.90;;;6.20;99.90;;;;;;7305846;32;20556;-61
2023/01/15 04:12:04;;;;;;;2.60;0.47;;;6.20;99.90;;;;;;7296631;32;20112;-60
2023/01/15 04:16:07;;;;;;;3.30;0.50;;;6.20;99.90;;;;;;7302604;32;20436;-60
2023/01/15 04:20:10;;;;;;;5.68;0.85;;;6.30;99.90;;;;;;7301340;32;20108;-60
2023/01/15 04:24:11;;;;;;;4.72;0.50;;;6.30;99.90;;;;;;7301685;32;20134;-61
2023/01/15 04:28:13;;;;;;;4.07;0.70;;;6.30;99.90;;;;;;7306026;32;20576;-60
2023/01/15 04:32:14;;;;;;;6.35;0.88;;;6.30;99.90;;;;;;7303767;32;20135;-60
2023/01/15 04:36:16;;;;;;;6.60;0.80;;;6.30;99.90;;;;;;7305432;32;20580;-60
2023/01/15 04:44:39;;;;;;;5.30;0.70;;;6.40;99.90;;;;;;7303589;32;20167;-61
2023/01/15 04:48:40;;;;;;;8.05;1.10;;;6.30;99.90;;;;;;7302667;32;20111;-60
2023/01/15 04:52:42;;;;;;;5.22;0.62;;;6.40;99.90;;;;;;7301117;32;20111;-61
2023/01/15 04:56:46;;;;;;;6.78;0.85;;;6.40;99.90;;;;;;7301699;32;20585;-60
2023/01/15 05:00:48;;;;;;;5.70;0.62;;;6.40;99.90;;;;;;7281572;32;20138;-62
2023/01/15 05:04:49;;;;;;;7.07;0.85;;;6.40;99.90;;;;;;7300158;32;20129;-60
2023/01/15 05:08:52;;;;;;;3.97;0.65;;;6.30;99.90;;;;;;7301613;32;20132;-60
2023/01/15 05:12:53;;;;;;;2.65;0.73;;;6.40;99.90;;;;;;7299816;32;20532;-62
2023/01/15 05:16:55;;;;;;;5.80;0.57;;;6.40;99.90;;;;;;7298810;32;20176;-60
2023/01/15 05:20:57;;;;;;;8.27;1.20;;;6.40;99.90;;;;;;7297163;32;20449;-60
2023/01/15 05:24:58;;;;;;;8.10;0.70;;;6.40;99.90;;;;;;7300107;32;20099;-60
2023/01/15 05:29:01;;;;;;;4.05;0.68;;;6.40;99.90;;;;;;7300575;32;20584;-60
2023/01/15 05:33:03;;;;;;;5.20;1.20;;;6.40;99.90;;;;;;7301042;32;20116;-60
2023/01/15 05:37:05;;;;;;;7.10;0.70;;;6.40;99.90;;;;;;7299486;32;20226;-60
2023/01/15 05:45:50;;;;;;;7.50;1.05;;;6.40;99.90;;;;;;7170305;32;20145;-60
2023/01/15 05:49:52;;;;;;;12.85;1.27;;;6.40;99.90;;;;;;7232467;32;20108;-62
2023/01/15 05:53:55;;;;;;;7.53;0.77;;;6.40;99.90;;;;;;7298442;32;20130;-61
2023/01/15 05:57:57;;;;;;;5.07;0.93;;;6.50;99.90;;;;;;7295396;32;20104;-60
2023/01/15 06:01:59;;;;;;;8.02;1.12;;;6.50;99.90;;;;;;7298673;32;20133;-60
2023/01/15 06:06:01;;;;;;;7.85;1.00;;;6.50;99.90;;;;;;7297811;32;20223;-61
2023/01/15 06:10:03;;;;;;;7.55;1.00;;;6.50;99.90;;;;;;7299965;32;20147;-60
2023/01/15 06:14:06;;;;;;;6.85;1.20;;;6.50;99.90;;;;;;7287430;32;20474;-60
2023/01/15 06:18:07;;;;;;;10.43;1.42;;;6.60;99.90;;;;;;7297984;32;20107;-60
2023/01/15 06:22:09;;;;;;;7.12;1.15;;;6.50;99.90;;;;;;7283668;32;20557;-61
2023/01/15 06:26:14;;;;;;;13.15;1.10;;;6.50;99.90;;;;;;7295300;32;20116;-62
2023/01/15 06:30:16;;;;;;;5.37;1.10;;;6.50;99.90;;;;;;7299671;32;20225;-59
2023/01/15 06:34:18;;;;;;;8.23;0.80;;;6.60;99.90;;;;;;7292936;32;20529;-60
2023/01/15 06:38:20;;;;;;;3.42;1.00;;;6.60;99.90;;;;;;7298289;32;20139;-60
2023/01/15 06:51:05;;;;;;;4.78;0.80;;;6.50;99.90;;;;;;7297916;32;20195;-60
2023/01/15 06:55:07;;;;;;;4.15;0.73;;;6.50;99.90;;;;;;7298446;32;20210;-60
2023/01/15 06:59:09;;;;;;;6.40;0.82;;;6.50;99.90;;;;;;7296142;32;20161;-60
2023/01/15 07:03:13;;;;;;;3.42;0.75;;;6.50;99.90;;;;;;7295581;32;20130;-60
2023/01/15 07:07:16;;;;;;;4.37;0.77;;;6.50;99.90;;;;;;7297542;32;20496;-61
2023/01/15 07:11:18;;;;;;;7.65;1.00;;;6.40;99.90;;;;;;7296310;32;20143;-61
2023/01/15 07:15:19;;;;;;;3.97;1.23;;;6.40;99.90;;;;;;7298273;32;20104;-60
2023/01/15 07:19:21;;;;;;;4.12;0.90;;;6.40;99.90;;;;;;7296206;32;20142;-61
2023/01/15 07:23:25;;;;;;;7.35;1.08;;;6.40;99.90;;;;;;7297191;32;20206;-60
2023/01/15 07:27:26;;;;;;;6.68;0.90;;;6.30;99.90;;;;;;7294813;32;20220;-60
2023/01/15 07:31:28;;;;;;;7.40;1.10;;;6.40;99.90;;;;;;7297398;32;20115;-61
2023/01/15 07:35:30;;;;;;;9.10;0.82;;;6.30;99.90;;;;;;7296092;32;20218;-62
2023/01/15 07:39:32;;;;;;;4.35;0.50;;;6.40;99.90;;;;;;7285381;32;20223;-62
2023/01/15 07:52:19;;;;;;;8.82;0.98;;;6.40;99.90;;;;;;7290757;32;20135;-61
2023/01/15 07:56:21;;;;;;;6.93;0.88;;;6.30;99.90;;;;;;7290306;32;20307;-63
2023/01/15 08:00:24;;;;;;;5.53;0.75;;;6.30;99.90;;;;;;7286893;32;20140;-61
2023/01/15 08:04:25;;;;;;;5.50;0.60;;;6.30;99.90;;;;;;7289107;32;20222;-61
2023/01/15 08:08:27;;;;;;;5.50;1.00;;;6.40;99.90;;;;;;7289004;32;20258;-61
2023/01/15 08:16:49;;;;;;;7.57;1.05;;;6.40;99.90;;;;;;7290683;32;20172;-61
2023/01/15 08:20:51;;;;;;;6.15;0.88;;;6.40;99.90;;;;;;7294977;32;20116;-61
2023/01/15 08:24:52;;;;;;;5.85;0.90;;;6.50;99.90;;;;;;7296015;32;20104;-60
2023/01/15 08:28:54;;;;;;;4.47;0.68;;;6.40;99.90;;;;;;7299559;32;20507;-60
2023/01/15 08:32:59;;;;;;;2.62;0.50;;;6.40;99.90;;;;;;7297329;32;20512;-61
2023/01/15 08:37:01;;;;;;;6.10;0.80;;;6.40;99.90;;;;;;7295560;32;20198;-62
2023/01/15 08:41:03;;;;;;;9.60;0.80;;;6.30;99.90;;;;;;7294121;32;20162;-61
2023/01/15 08:45:05;;;;;;;4.35;0.62;;;6.30;99.90;;;;;;7300704;32;20438;-62
2023/01/15 08:49:09;;;;;;;2.03;0.43;;;6.30;99.90;;;;;;7301095;32;20207;-62
2023/01/15 08:53:12;;;;;;;2.37;0.43;;;6.20;99.90;;;;;;7299540;32;20130;-62
2023/01/15 08:57:13;;;;;;;2.03;0.50;;;6.20;99.90;;;;;;7299153;32;20121;-63
2023/01/15 09:01:15;;;;;;;2.35;0.50;;;6.10;99.90;;;;;;7299082;32;20208;-62
2023/01/15 09:05:18;;;;;;;8.25;0.70;;;6.10;99.90;;;;;;7301773;32;20211;-61
2023/01/15 09:09:19;;;;;;;5.75;0.50;;;6.00;99.90;;;;;;7295780;32;20162;-61
2023/01/15 09:13:21;;;;;;;2.97;0.50;;;5.90;99.90;;;;;;7298327;32;20104;-63
2023/01/15 09:17:23;;;;;;;4.87;0.80;;;5.90;99.90;;;;;;7296022;32;20108;-61
2023/01/15 09:21:25;;;;;;;2.78;0.50;;;5.80;99.90;;;;;;7296573;32;20419;-61
2023/01/15 09:25:27;;;;;;;5.00;0.55;;;5.80;99.90;;;;;;7298492;32;20316;-61
2023/01/15 09:29:29;;;;;;;4.35;0.62;;;5.70;99.90;;;;;;7297976;32;20108;-61
2023/01/15 09:33:30;;;;;;;3.03;0.60;;;5.70;99.90;;;;;;7294919;32;20104;-62
2023/01/15 09:37:32;;;;;;;2.20;0.37;;;5.70;99.90;;;;;;7297626;32;20262;-62
2023/01/15 09:42:06;;;;;;;4.97;0.77;;;5.80;99.90;;;;;;7295117;32;20176;-61
2023/01/15 09:46:21;;;;;;;5.90;0.60;;;5.90;99.90;;;;;;7298075;32;20107;-60
2023/01/15 09:50:46;;;;;;;3.05;0.68;;;5.90;99.90;;;;;;7296699;32;20180;-59
2023/01/15 09:54:53;;;;;;;4.28;1.12;;;6.00;99.90;;;;;;7294630;32;20215;-59
2023/01/15 09:58:58;;;;;;;3.78;0.57;;;6.30;99.90;;;;;;7296508;32;20104;-59
2023/01/15 10:03:24;;;;;;;2.97;0.73;;;6.40;99.90;;;;;;7295835;32;20116;-59
2023/01/15 10:07:43;;;;;;;8.07;1.17;;;6.70;99.90;;;;;;7291172;32;20109;-59
2023/01/15 10:16:23;;;;;;;7.28;0.88;;;6.70;99.90;;;;;;7301260;32;20138;-58
2023/01/15 10:20:55;;;;;;;6.78;0.75;;;6.90;99.90;;;;;;7300344;32;20142;-58
2023/01/15 10:25:00;;;;;;;5.93;0.57;;;7.00;99.90;;;;;;7286670;32;22064;-60
2023/01/15 10:29:18;;;;;;;9.27;1.20;;;6.90;99.90;;;;;;7299589;32;20112;-59
2023/01/15 10:33:39;;;;;;;9.65;1.50;;;6.80;99.90;;;;;;7297565;32;20108;-59
2023/01/15 10:37:53;;;;;;;9.98;1.33;;;6.80;99.90;;;;;;7294979;32;20103;-59
2023/01/15 10:42:27;;;;;;;8.07;0.95;;;6.80;99.90;;;;;;7294397;32;20597;-59
2023/01/15 10:46:36;;;;;;;6.22;0.80;;;6.80;99.90;;;;;;7291089;32;20745;-62
2023/01/15 10:50:38;;;;;;;4.45;0.95;;;6.90;99.90;;;;;;7280306;32;20556;-61
2023/01/15 10:54:50;;;;;;;6.82;0.60;;;7.00;99.90;;;;;;7299887;32;20160;-61
2023/01/15 10:59:07;;;;;;;6.80;0.85;;;6.90;99.90;;;;;;7297785;32;20179;-62
2023/01/15 11:03:15;;;;;;;7.60;1.40;;;6.90;99.90;;;;;;7294200;32;20126;-61
2023/01/15 11:07:17;;;;;;;5.07;0.80;;;7.00;99.90;;;;;;7300225;32;20431;-61
2023/01/15 11:19:35;;;;;;;9.45;1.10;;;7.10;99.90;;;;;;7297893;32;20112;-60
2023/01/15 11:20:34;;;;;;;4.15;0.77;;;7.10;99.90;;;;;;7291608;32;20134;-61
2023/01/15 11:24:44;;;;;;;3.28;0.55;;;7.20;99.90;;;;;;7291326;32;20105;-61
2023/01/15 11:28:46;;;;;;;5.50;0.75;;;7.20;99.90;;;;;;7298353;32;20133;-60
2023/01/15 11:32:54;;;;;;;7.40;0.65;;;7.10;99.90;;;;;;7296809;32;20242;-60
2023/01/15 11:37:05;;;;;;;7.05;0.90;;;7.30;99.90;;;;;;7297191;32;20163;-60
2023/01/15 11:54:43;;;;;;;2.65;0.75;;;7.10;99.90;;;;;;7291700;32;20207;-58
2023/01/15 11:58:48;;;;;;;5.90;0.60;;;7.10;99.90;;;;;;7299463;32;20258;-58
2023/01/15 12:02:55;;;;;;;6.57;0.80;;;7.10;99.90;;;;;;7302077;32;20112;-58
2023/01/15 12:06:58;;;;;;;4.18;0.60;;;7.10;99.90;;;;;;7301956;32;20230;-59
2023/01/15 12:11:25;;;;;;;4.50;0.73;;;7.00;99.90;;;;;;7301910;32;20187;-60
2023/01/15 12:15:43;;;;;;;2.47;0.57;;;7.10;99.90;;;;;;7294428;32;20634;-59
2023/01/15 12:19:48;;;;;;;8.03;1.40;;;7.20;99.90;;;;;;7301215;32;20198;-59
2023/01/15 12:24:24;;;;;;;5.00;0.60;;;7.10;99.90;;;;;;7298574;32;20108;-58
2023/01/15 12:28:36;;;;;;;3.05;0.70;;;7.00;99.90;;;;;;7294256;32;20153;-58
2023/01/15 12:32:45;;;;;;;3.58;0.60;;;7.00;99.90;;;;;;7301312;32;20771;-58
2023/01/15 12:36:50;;;;;;;5.50;0.80;;;7.10;99.90;;;;;;7298158;32;20191;-59
2023/01/15 12:41:07;;;;;;;2.35;0.70;;;7.20;99.90;;;;;;7299375;32;20143;-58
2023/01/15 12:45:25;;;;;;;3.05;0.93;;;7.10;99.90;;;;;;7287161;32;20215;-58
2023/01/15 12:49:42;;;;;;;4.80;0.52;;;7.20;99.90;;;;;;7293989;32;20133;-59
2023/01/15 12:53:54;;;;;;;3.45;0.68;;;7.40;99.90;;;;;;7298166;32;20104;-59
2023/01/15 12:58:00;;;;;;;6.03;0.77;;;7.40;99.90;;;;;;7290301;32;20163;-59
2023/01/15 13:02:19;;;;;;;4.57;0.70;;;7.40;99.90;;;;;;7286051;32;20120;-59
2023/01/15 13:06:25;;;;;;;2.53;0.80;;;7.40;99.90;;;;;;7295285;32;20506;-60
2023/01/15 13:10:35;;;;;;;6.90;1.10;;;7.40;99.90;;;;;;7300333;32;20205;-59
2023/01/15 13:14:37;;;;;;;5.60;0.80;;;7.30;99.90;;;;;;7295547;32;20289;-59
2023/01/15 13:18:46;;;;;;;6.75;0.93;;;7.20;99.90;;;;;;7299177;32;20146;-59
2023/01/15 13:23:06;;;;;;;4.07;0.60;;;7.10;99.90;;;;;;7296070;32;20517;-59
2023/01/15 13:27:28;;;;;;;6.15;1.00;;;7.20;99.90;;;;;;7299837;32;20237;-60
2023/01/15 13:32:05;;;;;;;5.68;0.70;;;7.10;99.90;;;;;;7292521;32;20513;-59
2023/01/15 13:36:16;;;;;;;5.72;1.00;;;7.10;99.90;;;;;;7298908;32;20226;-59
2023/01/15 13:40:34;;;;;;;6.90;1.60;;;7.00;99.90;;;;;;7300052;32;20308;-57
2023/01/15 13:44:43;;;;;;;2.55;0.73;;;7.10;99.90;;;;;;7294105;32;20154;-59
2023/01/15 13:48:51;;;;;;;6.05;0.80;;;7.20;99.90;;;;;;7293124;32;20111;-58
2023/01/15 13:53:19;;;;;;;;;;;7.10;99.90;;;;;;7298912;32;20605;-59
2023/01/15 13:57:35;;;;;;;5.47;0.80;;;7.10;99.90;;;;;;7290742;32;20595;-58
2023/01/15 14:01:37;;;;;;;4.47;0.80;;;7.00;99.90;;;;;;7296676;32;20140;-58
2023/01/15 14:05:38;;;;;;;2.90;0.68;;;7.00;99.90;;;;;;7299189;32;20517;-59
2023/01/15 14:09:40;;;;;;;2.37;0.60;;;7.00;99.90;;;;;;7299204;32;20154;-58
2023/01/15 14:14:01;;;;;;;3.45;0.95;;;7.00;99.90;;;;;;7300476;32;20104;-58
2023/01/15 14:18:43;;;;;;;3.37;1.40;;;7.10;99.90;;;;;;7290669;32;20525;-61
2023/01/15 14:23:16;;;;;;;3.87;0.90;;;7.10;99.90;;;;;;7267983;32;20125;-60
2023/01/15 14:27:34;;;;;;;4.53;0.60;;;7.10;99.90;;;;;;7293666;32;20883;-60
2023/01/15 14:31:59;;;;;;;3.92;0.77;;;7.10;99.90;;;;;;7298728;32;20601;-62
2023/01/15 14:36:17;;;;;;;5.12;0.93;;;7.20;99.90;;;;;;7298848;32;20100;-60
2023/01/15 14:40:28;;;;;;;3.03;0.80;;;7.20;99.90;;;;;;7297019;32;20120;-64
2023/01/15 14:44:32;;;;;;;2.28;0.40;;;7.10;99.90;;;;;;7295940;32;20137;-68
2023/01/15 14:48:38;;;;;;;2.55;0.45;;;7.20;99.90;;;;;;7279104;32;20139;-59
2023/01/15 14:52:44;;;;;;;5.10;0.73;;;7.20;99.90;;;;;;7293176;32;20202;-60
2023/01/15 14:56:58;;;;;;;5.80;0.80;;;7.20;99.90;;;;;;7298194;32;20103;-67
2023/01/15 15:01:10;;;;;;;3.05;0.60;;;7.20;99.90;;;;;;7297670;32;20112;-59
2023/01/15 15:05:19;;;;;;;4.45;0.50;;;7.20;99.90;;;;;;7297884;32;20135;-60
2023/01/15 15:09:27;;;;;;;2.75;0.45;;;7.10;99.90;;;;;;7295009;32;20211;-68
2023/01/15 15:13:34;;;;;;;1.98;0.40;;;7.00;99.90;;;;;;7297248;32;20104;-62
2023/01/15 15:17:39;;;;;;;;;;;7.00;99.90;;;;;;7296270;32;20134;-59
2023/01/15 15:21:45;;;;;;;4.45;0.77;;;7.00;99.90;;;;;;7294033;32;20007;-68
2023/01/15 15:26:02;;;;;;;4.28;0.60;;;7.00;99.90;;;;;;7293966;32;20136;-61
2023/01/15 15:30:05;;;;;;;3.92;0.47;;;7.00;99.90;;;;;;7296951;32;20116;-61
2023/01/15 15:34:15;;;;;;;6.43;0.80;;;7.00;99.90;;;;;;7295997;32;20167;-69
2023/01/15 15:38:20;;;;;;;4.53;0.70;;;7.00;99.90;;;;;;7297265;32;20253;-61
2023/01/15 15:51:27;;;;;;;3.67;0.80;;;7.00;99.90;;;;;;7290716;32;20112;-61
2023/01/15 15:55:41;;;;;;;2.97;0.45;;;7.00;99.90;;;;;;7293924;32;20824;-60
2023/01/15 15:59:49;;;;;;;3.35;0.40;;;7.00;99.90;;;;;;7294718;32;20242;-61
2023/01/15 16:03:51;;;;;;;5.35;0.60;;;6.90;99.90;;;;;;7297358;32;20500;-60
2023/01/15 16:07:54;;;;;;;6.40;0.70;;;6.90;99.90;;;;;;7298235;32;20108;-60
2023/01/15 16:12:05;;;;;;;6.15;0.75;;;7.00;99.90;;;;;;7297172;32;20268;-60
2023/01/15 16:16:08;;;;;;;2.92;0.82;;;6.90;99.90;;;;;;7284171;32;20138;-59
2023/01/15 16:20:16;;;;;;;4.85;0.65;;;7.00;99.90;;;;;;7296986;32;20647;-61
2023/01/15 16:24:25;;;;;;;5.35;0.95;;;6.90;99.90;;;;;;7297849;32;20108;-61
2023/01/15 16:28:39;;;;;;;4.30;1.00;;;6.90;99.90;;;;;;7285787;32;20103;-60
2023/01/15 16:32:42;;;;;;;4.25;0.60;;;6.90;99.90;;;;;;7292997;32;20294;-60
2023/01/15 16:36:44;;;;;;;2.92;1.00;;;6.90;99.90;;;;;;7297757;32;20183;-60
2023/01/15 16:40:46;;;;;;;3.78;0.68;;;6.90;99.90;;;;;;7297675;32;20215;-60
2023/01/15 16:44:55;;;;;;;2.95;1.02;;;6.80;99.90;;;;;;7300885;32;20526;-61
2023/01/15 16:49:21;;;;;;;4.28;1.40;;;6.80;99.90;;;;;;7302435;32;20779;-61
2023/01/15 16:53:28;;;;;;;4.40;0.88;;;6.80;99.90;;;;;;7302087;32;20211;-61
2023/01/15 16:57:32;;;;;;;3.45;0.77;;;6.80;99.90;;;;;;7287068;32;20650;-60
2023/01/15 17:01:40;;;;;;;2.78;0.77;;;6.80;99.90;;;;;;7301104;32;20131;-61
2023/01/15 17:05:43;;;;;;;3.95;0.60;;;6.80;99.90;;;;;;7300516;32;20199;-61
2023/01/15 17:09:56;;;;;;;5.03;0.90;;;6.90;99.90;;;;;;7300994;32;20168;-61
2023/01/15 17:14:16;;;;;;;4.78;0.77;;;6.90;99.90;;;;;;7295337;32;20162;-60
2023/01/15 17:18:23;;;;;;;3.72;0.50;;;6.80;99.90;;;;;;7295355;32;20250;-60
2023/01/15 17:22:28;;;;;;;4.68;0.90;;;6.80;99.90;;;;;;7276441;32;20129;-60
2023/01/15 17:26:29;;;;;;;3.75;0.70;;;6.80;99.90;;;;;;7297156;32;20172;-60
2023/01/15 17:30:32;;;;;;;3.78;0.80;;;6.80;99.90;;;;;;7296928;32;20548;-62
2023/01/15 17:34:34;;;;;;;3.25;0.80;;;6.80;99.90;;;;;;7296284;32;20136;-60
2023/01/15 17:38:35;;;;;;;3.08;1.12;;;6.80;99.90;;;;;;7295298;32;20162;-60
2023/01/15 17:42:37;;;;;;;5.87;0.80;;;6.80;99.90;;;;;;7296251;32;20230;-63
2023/01/15 17:46:39;;;;;;;3.33;0.90;;;7.10;99.90;;;;;;7294873;32;20198;-64
2023/01/15 17:50:40;;;;;;;3.85;1.20;;;7.30;99.90;;;;;;7300069;32;20145;-60
2023/01/15 18:07:57;;;;;;;3.60;0.90;;;6.80;99.90;;;;;;7292098;32;20614;-58
2023/01/15 18:11:58;;;;;;;3.87;0.70;;;6.80;99.90;;;;;;7298575;32;21050;-60
2023/01/15 18:16:00;;;;;;;1.80;0.55;;;6.80;99.90;;;;;;7295270;32;20699;-59
2023/01/15 18:20:02;;;;;;;4.20;0.60;;;6.70;99.90;;;;;;7290841;32;20109;-60
2023/01/15 18:24:06;;;;;;;4.65;0.93;;;6.70;99.90;;;;;;7295485;32;20166;-60
2023/01/15 18:28:07;;;;;;;2.12;0.75;;;6.70;99.90;;;;;;7278742;32;20108;-59
2023/01/15 18:32:09;;;;;;;2.97;0.82;;;6.70;99.90;;;;;;7296957;32;20284;-59
2023/01/15 18:36:12;;;;;;;2.95;0.70;;;6.70;99.90;;;;;;7290054;32;20179;-59
2023/01/15 18:40:14;;;;;;;1.85;0.90;;;6.60;99.90;;;;;;7289229;32;20112;-60
2023/01/15 18:48:39;;;;;;;4.05;1.05;;;6.60;99.90;;;;;;7296799;32;20512;-59
2023/01/15 18:52:49;;;;;;;2.45;0.75;;;6.70;99.90;;;;;;7301919;32;20146;-59
2023/01/15 18:56:51;;;;;;;3.70;1.12;;;6.60;99.90;;;;;;7292400;32;20131;-61
2023/01/15 19:00:53;;;;;;;4.72;1.00;;;6.60;99.90;;;;;;7287642;32;20545;-60
2023/01/15 19:04:54;;;;;;;4.10;0.75;;;6.50;99.90;;;;;;7282529;32;20241;-60
2023/01/15 19:08:57;;;;;;;4.07;0.68;;;6.50;99.90;;;;;;7290098;32;20305;-60
2023/01/15 19:13:01;;;;;;;4.32;0.93;;;6.60;99.90;;;;;;7289066;32;20226;-60
2023/01/15 19:21:24;;;;;;;3.85;0.73;;;6.50;99.90;;;;;;7285423;32;20284;-59
2023/01/15 19:25:31;;;;;;;3.37;0.70;;;6.50;99.90;;;;;;7284525;32;20099;-59
2023/01/15 19:29:33;;;;;;;2.75;0.77;;;6.40;99.90;;;;;;7289845;32;20187;-60
2023/01/15 19:33:35;;;;;;;4.20;0.50;;;6.50;99.90;;;;;;7287632;32;20565;-59
2023/01/15 19:37:38;;;;;;;5.82;1.58;;;6.50;99.90;;;;;;7285936;32;20624;-60
2023/01/15 19:50:30;;;;;;;3.90;0.95;;;6.40;99.90;;;;;;7285339;32;20213;-60
2023/01/15 19:58:52;;;;;;;5.10;0.95;;;6.40;99.90;;;;;;7289483;32;22260;-62
2023/01/15 20:02:55;;;;;;;5.25;0.82;;;6.40;99.90;;;;;;7294834;32;20188;-61
2023/01/15 20:06:56;;;;;;;4.82;0.90;;;6.40;99.90;;;;;;7283123;32;20242;-60
2023/01/15 20:10:58;;;;;;;4.35;1.20;;;6.40;99.90;;;;;;7288462;32;20130;-61
2023/01/15 20:15:00;;;;;;;3.75;1.10;;;6.40;99.90;;;;;;7285314;32;20217;-61
2023/01/15 20:19:03;;;;;;;3.00;1.08;;;6.50;99.90;;;;;;7285452;32;20129;-62
2023/01/15 20:23:05;;;;;;;4.35;0.82;;;6.50;99.90;;;;;;7291825;32;20135;-61
2023/01/15 20:27:07;;;;;;;3.17;0.77;;;6.40;99.90;;;;;;7288558;32;20138;-61
2023/01/15 20:31:16;;;;;;;5.65;1.00;;;6.50;99.90;;;;;;7296901;32;20894;-63
2023/01/15 20:35:28;;;;;;;9.15;0.77;;;6.40;99.90;;;;;;7295573;32;20204;-62
2023/01/15 20:39:30;;;;;;;7.53;1.35;;;6.40;99.90;;;;;;7296862;32;20214;-62
2023/01/15 20:52:12;;;;;;;3.78;1.08;;;6.40;99.90;;;;;;7298065;32;20211;-62
2023/01/15 20:56:15;;;;;;;2.83;0.80;;;6.30;99.90;;;;;;7288166;32;20140;-60
2023/01/15 21:00:19;;;;;;;6.50;1.10;;;6.30;99.90;;;;;;7285284;32;20108;-60
2023/01/15 21:04:21;;;;;;;5.78;1.10;;;6.40;99.90;;;;;;7293741;32;20642;-59
2023/01/15 21:08:23;;;;;;;7.47;1.30;;;6.30;99.90;;;;;;7287348;32;20612;-62
2023/01/15 21:12:25;;;;;;;4.03;1.10;;;6.30;99.90;;;;;;7289759;32;20509;-62
2023/01/15 21:16:26;;;;;;;3.28;1.02;;;6.40;99.90;;;;;;7289950;32;20118;-60
2023/01/15 21:20:29;;;;;;;6.25;1.10;;;6.40;99.90;;;;;;7288373;32;20602;-59
2023/01/15 21:24:32;;;;;;;4.43;1.02;;;6.40;99.90;;;;;;7295491;32;20135;-60
2023/01/15 21:28:33;;;;;;;4.80;0.98;;;6.40;99.90;;;;;;7293952;32;20250;-60
2023/01/15 21:32:35;;;;;;;4.25;0.98;;;6.30;99.90;;;;;;7290999;32;20138;-60
2023/01/15 21:36:37;;;;;;;6.28;0.85;;;6.30;99.90;;;;;;7290806;32;20169;-60
2023/01/15 21:40:38;;;;;;;4.47;0.93;;;6.40;99.90;;;;;;7295313;32;20142;-60
2023/01/15 21:44:44;;;;;;;6.10;1.02;;;6.40;99.90;;;;;;7289391;32;20135;-61
2023/01/15 21:48:46;;;;;;;5.55;1.10;;;6.20;99.90;;;;;;7283595;32;20108;-60
2023/01/15 21:52:47;;;;;;;4.25;0.90;;;6.00;99.90;;;;;;7297225;32;21000;-61
2023/01/15 21:56:49;;;;;;;3.03;0.90;;;5.90;99.90;;;;;;7296777;32;20134;-60
2023/01/15 22:00:51;;;;;;;5.80;0.95;;;5.70;99.90;;;;;;7288601;32;20229;-61
2023/01/15 22:04:52;;;;;;;6.28;1.05;;;5.60;99.90;;;;;;7296248;32;20161;-61
2023/01/15 22:08:55;;;;;;;8.07;1.12;;;5.60;99.90;;;;;;7295504;32;20254;-60
2023/01/15 22:12:56;;;;;;;7.00;0.88;;;5.50;99.90;;;;;;7294620;32;20651;-60
2023/01/15 22:17:01;;;;;;;6.82;0.90;;;5.50;99.90;;;;;;7290043;32;20221;-60
2023/01/15 22:21:05;;;;;;;6.25;1.00;;;5.50;99.90;;;;;;7296875;32;20348;-60
2023/01/15 22:25:09;;;;;;;6.43;1.00;;;5.40;99.90;;;;;;7296687;32;20158;-60
2023/01/15 22:29:10;;;;;;;6.03;0.80;;;5.40;99.90;;;;;;7295774;32;20138;-60
2023/01/15 22:33:13;;;;;;;5.03;0.93;;;5.40;99.90;;;;;;7294097;32;20222;-62
2023/01/15 22:37:15;;;;;;;8.10;0.90;;;5.50;99.90;;;;;;7297607;32;20134;-61
2023/01/15 22:45:38;;;;;;;4.72;0.85;;;5.50;99.90;;;;;;7287977;32;20211;-60
2023/01/15 22:49:39;;;;;;;7.62;1.10;;;5.50;99.90;;;;;;7267794;32;20183;-59
2023/01/15 22:53:41;;;;;;;5.25;0.73;;;5.60;99.90;;;;;;7276221;32;20195;-60
2023/01/15 22:57:43;;;;;;;3.20;0.60;;;5.60;99.90;;;;;;7291107;32;20108;-60
2023/01/15 23:01:44;;;;;;;5.55;0.93;;;5.60;99.90;;;;;;7294382;32;20127;-59
2023/01/15 23:05:46;;;;;;;2.75;0.60;;;5.70;99.90;;;;;;7293981;32;20238;-60
2023/01/15 23:09:48;;;;;;;4.57;0.88;;;5.70;99.90;;;;;;7296721;32;20133;-59
2023/01/15 23:13:50;;;;;;;4.40;0.80;;;5.80;99.90;;;;;;7292227;32;20266;-59
2023/01/15 23:17:51;;;;;;;6.07;0.70;;;5.80;99.90;;;;;;7298055;32;20149;-61
2023/01/15 23:21:53;;;;;;;4.70;0.80;;;5.80;99.90;;;;;;7294840;32;20128;-59
2023/01/15 23:25:55;;;;;;;5.20;0.68;;;5.80;99.90;;;;;;7295838;32;20494;-59
2023/01/15 23:29:57;;;;;;;4.12;0.82;;;5.80;99.90;;;;;;7296592;32;20170;-60
2023/01/15 23:33:59;;;;;;;3.97;0.62;;;5.80;99.90;;;;;;7290821;32;20299;-59